Create Tblcommutelog Verified Points Advance Search
| # | Trip ID | Id Commuter | Trip Date | Trip Num | Current Lat | Current Lng | Delta Distance | Current Time | Activity | Activity Confidence | Current Speed | |
|---|---|---|---|---|---|---|---|---|---|---|---|---|
| 73621 | 250722_787384_16655865_1743 | 787384 | (not set) | (not set) | 39.075503623191 | -77.136087598282 | 15.2192 | 2025-07-22 18:30:41 | in_vehicle | 100 | 14.533246309691 | |
| 73622 | 250722_787384_16655865_1743 | 787384 | (not set) | (not set) | 39.075503623191 | -77.136087598282 | 15.2192 | 2025-07-22 18:30:41 | in_vehicle | 100 | 14.533246309691 | |
| 73623 | 250722_646766_16490097_1754 | 646766 | (not set) | (not set) | 39.065574455538 | -76.973013762922 | 19.8819 | 2025-07-22 18:30:42 | in_vehicle | 100 | 8.6993839799011 | |
| 73624 | 250722_785067_16653138_1756 | 785067 | (not set) | (not set) | 38.858735689865 | -77.056072335302 | 3.7187 | 2025-07-22 18:30:44 | on_bicycle | 100 | 1.6942787915635 | |
| 73625 | 250722_785067_16653138_1756 | 785067 | (not set) | (not set) | 38.858735689865 | -77.056072335302 | 3.7187 | 2025-07-22 18:30:44 | on_bicycle | 100 | 1.6942787915635 | |
| 73626 | 250722_118321_1036641_1740 | 118321 | (not set) | (not set) | 38.795356388546 | -77.156906481493 | 14.4227 | 2025-07-22 18:30:45 | in_vehicle | 100 | 9.6471072089551 | |
| 73627 | 250722_780998_16648672_1802 | 780998 | (not set) | (not set) | 38.986283221367 | -77.156822022124 | 9.8995 | 2025-07-22 18:30:49 | in_vehicle | 100 | 7.3716773807076 | |
| 73628 | 250722_776618_16644147_1754 | 776618 | (not set) | (not set) | 38.882166179299 | -77.118906871108 | 6.9392 | 2025-07-22 18:30:49 | in_vehicle | 100 | 3.5584325015423 | |
| 73629 | 250722_775339_16642799_1729 | 775339 | (not set) | (not set) | 38.970116385485 | -77.449493784626 | 26.6004 | 2025-07-22 18:30:49 | in_vehicle | 100 | 11.6587838744 | |
| 73630 | 250722_775339_16642799_1729 | 775339 | (not set) | (not set) | 38.970116385485 | -77.449493784626 | 26.6004 | 2025-07-22 18:30:49 | in_vehicle | 100 | 11.6587838744 | |
| 73631 | 250722_775339_16642799_1729 | 775339 | (not set) | (not set) | 38.970116385485 | -77.449493784626 | 26.6004 | 2025-07-22 18:30:49 | in_vehicle | 100 | 11.6587838744 | |
| 73632 | 250722_765311_16652720_1714 | 765311 | (not set) | (not set) | 39.139331940765 | -76.697479968115 | 16.0104 | 2025-07-22 18:30:50 | in_vehicle | 100 | 14.287374717248 | |
| 73633 | 250722_781618_16649305_1809 | 781618 | (not set) | (not set) | 39.067559866566 | -76.961028570288 | 3.3527 | 2025-07-22 18:30:51 | in_vehicle | 100 | 3.057748531476 | |
| 73634 | 250722_781618_16649305_1809 | 781618 | (not set) | (not set) | 39.067559866566 | -76.961028570288 | 3.3527 | 2025-07-22 18:30:51 | in_vehicle | 100 | 3.057748531476 | |
| 73635 | 250722_772683_16639975_1756 | 772683 | (not set) | (not set) | 38.9497195 | -77.0588938 | 8.7494 | 2025-07-22 18:30:53 | on_bicycle | 100 | 2.3916600355843 | |
| 73636 | 250722_781052_16648727_1715 | 781052 | (not set) | (not set) | 39.183846517808 | -77.313662510753 | 30.5175 | 2025-07-22 18:30:53 | in_vehicle | 100 | 5.8830366482785 | |
| 73637 | 250722_787384_16655865_1743 | 787384 | (not set) | (not set) | 39.078373512779 | -77.139349879336 | 15.4838 | 2025-07-22 18:30:54 | in_vehicle | 100 | 14.56453905782 | |
| 73638 | 250722_787384_16655865_1743 | 787384 | (not set) | (not set) | 39.078373512779 | -77.139349879336 | 15.4838 | 2025-07-22 18:30:54 | in_vehicle | 100 | 14.56453905782 | |
| 73639 | 250722_785812_16656085_1811 | 785812 | (not set) | (not set) | 38.96315319456 | -76.938861312663 | 2.7744 | 2025-07-22 18:30:56 | on_bicycle | 100 | 1.8239201766699 | |
| 73640 | 250722_118321_1036641_1740 | 118321 | (not set) | (not set) | 38.794567352233 | -77.159633847138 | 14.5797 | 2025-07-22 18:30:57 | in_vehicle | 100 | 9.2268903055066 |